createdAt,value
2023-04-18T00:00:58.400Z,100748.00
2023-04-18T00:03:30.409Z,100749.50
2023-04-18T00:06:01.050Z,100756.28
2023-04-18T00:08:31.452Z,100750.59
2023-04-18T00:11:03.398Z,100754.44
2023-04-18T00:13:33.312Z,100752.56
2023-04-18T00:16:02.780Z,100747.28
2023-04-18T00:18:32.907Z,100748.56
2023-04-18T00:21:04.629Z,100745.97
2023-04-18T00:23:35.109Z,100737.44
2023-04-18T00:26:05.562Z,100745.50
2023-04-18T00:28:36.496Z,100741.84
2023-04-18T00:31:06.265Z,100737.59
2023-04-18T00:33:37.518Z,100735.75
2023-04-18T00:36:10.508Z,100728.69
2023-04-18T00:38:40.256Z,100741.34
2023-04-18T00:41:10.384Z,100738.06
2023-04-18T00:43:40.192Z,100728.97
2023-04-18T00:46:09.555Z,100735.53
2023-04-18T00:48:53.567Z,100740.19
2023-04-18T00:51:25.872Z,100738.16
2023-04-18T00:53:58.748Z,100739.19
2023-04-18T00:56:29.525Z,100736.00
2023-04-18T00:59:00.359Z,100735.63
2023-04-18T01:01:32.595Z,100738.72
2023-04-18T01:04:02.255Z,100727.03
2023-04-18T01:06:34.367Z,100731.44
2023-04-18T01:09:06.191Z,100731.13
2023-04-18T01:11:36.533Z,100728.75
2023-04-18T01:14:08.815Z,100729.72
2023-04-18T01:16:39.062Z,100724.50
2023-04-18T01:19:13.229Z,100723.59
2023-04-18T01:21:46.132Z,100719.97
2023-04-18T01:24:17.491Z,100715.19
2023-04-18T01:26:49.348Z,100721.72
2023-04-18T01:29:19.994Z,100716.94
2023-04-18T01:31:52.332Z,100710.22
2023-04-18T01:34:21.182Z,100715.38
2023-04-18T01:36:51.487Z,100708.47
2023-04-18T01:39:21.373Z,100708.59
2023-04-18T01:41:50.360Z,100708.78
2023-04-18T01:44:18.877Z,100705.84
2023-04-18T01:46:48.573Z,100704.53
2023-04-18T01:49:18.089Z,100701.44
2023-04-18T01:51:47.677Z,100705.06
2023-04-18T01:54:17.182Z,100707.72
2023-04-18T01:56:47.607Z,100698.53
2023-04-18T01:59:16.840Z,100692.84
2023-04-18T02:01:46.392Z,100697.03
2023-04-18T02:04:16.286Z,100694.69
2023-04-18T02:06:48.148Z,100696.91
2023-04-18T02:09:27.730Z,100693.38
2023-04-18T02:11:59.868Z,100690.78
2023-04-18T02:14:34.490Z,100691.75
2023-04-18T02:17:03.631Z,100691.88
2023-04-18T02:19:33.984Z,100693.19
2023-04-18T02:22:02.499Z,100700.22
2023-04-18T02:24:32.862Z,100694.22
2023-04-18T02:27:03.817Z,100691.63
2023-04-18T02:29:33.455Z,100695.72
2023-04-18T02:32:02.371Z,100696.91
2023-04-18T02:34:30.584Z,100698.72
2023-04-18T02:36:59.381Z,100702.84
2023-04-18T02:39:27.507Z,100691.31
2023-04-18T02:41:56.114Z,100691.28
2023-04-18T02:44:30.053Z,100694.38
2023-04-18T02:46:58.777Z,100694.75
2023-04-18T02:49:28.954Z,100700.00
2023-04-18T02:51:58.798Z,100699.44
2023-04-18T02:54:27.438Z,100702.69
2023-04-18T02:57:10.025Z,100700.50
2023-04-18T02:59:45.679Z,100709.19
2023-04-18T03:02:14.051Z,100702.47
2023-04-18T03:04:50.969Z,100704.94
2023-04-18T03:07:19.719Z,100703.63
2023-04-18T03:09:50.176Z,100710.53
2023-04-18T03:12:24.032Z,100703.63
2023-04-18T03:14:54.647Z,100706.91
2023-04-18T03:17:22.999Z,100709.75
2023-04-18T03:19:51.783Z,100720.81
2023-04-18T03:22:22.626Z,100721.63
2023-04-18T03:24:56.704Z,100706.50
2023-04-18T03:27:40.246Z,100716.88
2023-04-18T03:30:11.508Z,100713.34
2023-04-18T03:32:42.990Z,100707.34
2023-04-18T03:35:12.114Z,100725.69
2023-04-18T03:37:40.534Z,100718.88
2023-04-18T03:40:11.219Z,100722.41
2023-04-18T03:42:39.391Z,100714.34
2023-04-18T03:45:08.425Z,100721.13
2023-04-18T03:47:40.050Z,100711.66
2023-04-18T03:50:09.209Z,100715.34
2023-04-18T03:52:37.505Z,100721.25
2023-04-18T03:55:07.455Z,100709.22
2023-04-18T03:57:35.873Z,100706.91
2023-04-18T04:00:08.820Z,100706.88
2023-04-18T04:02:46.138Z,100695.06
2023-04-18T04:05:21.827Z,100704.50
2023-04-18T04:07:51.734Z,100702.25
2023-04-18T04:10:20.240Z,100709.88
2023-04-18T04:12:50.092Z,100704.00
2023-04-18T04:15:22.226Z,100698.78
2023-04-18T04:18:13.162Z,100704.00
2023-04-18T04:20:45.564Z,100703.03
2023-04-18T04:23:18.689Z,100710.84
2023-04-18T04:25:49.724Z,100710.03
2023-04-18T04:28:46.735Z,100701.13
2023-04-18T04:31:22.330Z,100702.06
2023-04-18T04:33:52.872Z,100698.75
2023-04-18T04:36:24.862Z,100697.69
2023-04-18T04:38:54.728Z,100699.69
2023-04-18T04:41:32.529Z,100698.91
2023-04-18T04:44:02.044Z,100692.94
2023-04-18T04:46:34.650Z,100694.56
2023-04-18T04:49:09.571Z,100691.75
2023-04-18T04:51:38.208Z,100689.97
2023-04-18T04:54:09.451Z,100689.84
2023-04-18T04:56:40.312Z,100695.69
2023-04-18T04:59:09.190Z,100689.59
2023-04-18T05:01:41.722Z,100693.00
2023-04-18T05:04:13.531Z,100692.00
2023-04-18T05:06:42.435Z,100694.47
2023-04-18T05:09:10.865Z,100690.16
2023-04-18T05:11:39.193Z,100695.16
2023-04-18T05:14:07.175Z,100700.50
2023-04-18T05:16:36.113Z,100709.53
2023-04-18T05:19:04.690Z,100693.44
2023-04-18T05:21:34.111Z,100711.19
2023-04-18T05:24:02.401Z,100706.59
2023-04-18T05:26:30.636Z,100711.56
2023-04-18T05:28:59.021Z,100715.50
2023-04-18T05:31:27.741Z,100712.44
2023-04-18T05:33:56.113Z,100720.97
2023-04-18T05:36:24.687Z,100723.88
2023-04-18T05:38:54.249Z,100731.41
2023-04-18T05:41:23.216Z,100726.97
2023-04-18T05:44:04.321Z,100724.16
2023-04-18T05:46:34.188Z,100736.53
2023-04-18T05:49:03.924Z,100740.44
2023-04-18T05:51:32.512Z,100738.00
2023-04-18T05:54:03.397Z,100743.84
2023-04-18T05:56:33.220Z,100734.31
2023-04-18T05:59:09.489Z,100747.00
2023-04-18T06:01:38.544Z,100744.22
2023-04-18T06:04:08.837Z,100756.22
2023-04-18T06:06:37.479Z,100744.03
2023-04-18T06:09:07.199Z,100763.66
2023-04-18T06:11:38.365Z,100770.97
2023-04-18T06:14:08.444Z,100766.03
2023-04-18T06:16:37.539Z,100776.31
2023-04-18T06:19:06.182Z,100780.47
2023-04-18T06:21:36.918Z,100784.91
2023-04-18T06:24:08.056Z,100784.66
2023-04-18T06:26:38.078Z,100781.72
2023-04-18T06:29:06.516Z,100785.16
2023-04-18T06:31:38.464Z,100793.19
2023-04-18T06:34:07.919Z,100789.66
2023-04-18T06:36:36.340Z,100779.06
2023-04-18T06:39:05.017Z,100779.75
2023-04-18T06:41:37.787Z,100784.50
2023-04-18T06:44:06.569Z,100789.34
2023-04-18T06:46:35.901Z,100795.25
2023-04-18T06:49:04.163Z,100797.09
2023-04-18T06:51:34.717Z,100798.91
2023-04-18T06:54:03.450Z,100803.72
2023-04-18T06:56:32.642Z,100804.59
2023-04-18T06:59:04.212Z,100799.91
2023-04-18T07:01:33.474Z,100809.19
2023-04-18T07:04:02.682Z,100811.25
2023-04-18T07:06:31.986Z,100804.94
2023-04-18T07:09:02.334Z,100805.09
2023-04-18T07:11:30.901Z,100813.28
2023-04-18T07:13:59.391Z,100816.94
2023-04-18T07:16:29.272Z,100816.22
2023-04-18T07:18:58.414Z,100808.09
2023-04-18T07:21:28.821Z,100818.25
2023-04-18T07:23:58.187Z,100817.16
2023-04-18T07:26:28.247Z,100819.13
2023-04-18T07:28:57.369Z,100811.38
2023-04-18T07:31:26.153Z,100812.38
2023-04-18T07:33:57.170Z,100810.03
2023-04-18T07:36:29.555Z,100805.09
2023-04-18T07:38:58.468Z,100818.72
2023-04-18T07:41:28.089Z,100809.69
2023-04-18T07:43:57.513Z,100810.97
2023-04-18T07:46:27.615Z,100816.75
2023-04-18T07:48:58.254Z,100807.06
2023-04-18T07:51:31.653Z,100812.66
2023-04-18T07:54:00.997Z,100824.66
2023-04-18T07:56:29.742Z,100821.63
2023-04-18T07:58:58.756Z,100827.50
2023-04-18T08:01:27.717Z,100828.38
2023-04-18T08:04:02.232Z,100824.78
2023-04-18T08:06:31.518Z,100826.34
2023-04-18T08:09:05.210Z,100836.72
2023-04-18T08:11:34.032Z,100838.81
2023-04-18T08:14:05.208Z,100837.38
2023-04-18T08:16:34.611Z,100840.97
2023-04-18T08:19:04.865Z,100845.50
2023-04-18T08:21:33.649Z,100844.75
2023-04-18T08:24:01.907Z,100837.88
2023-04-18T08:26:33.031Z,100842.13
2023-04-18T08:29:01.762Z,100846.25
2023-04-18T08:31:32.130Z,100834.28
2023-04-18T08:34:13.907Z,100844.38
2023-04-18T08:36:43.189Z,100845.19
2023-04-18T08:39:12.154Z,100838.47
2023-04-18T08:41:44.014Z,100841.34
2023-04-18T08:44:13.509Z,100847.50
2023-04-18T08:46:43.081Z,100840.84
2023-04-18T08:49:13.819Z,100847.56
2023-04-18T08:51:43.784Z,100849.38
2023-04-18T08:54:13.596Z,100851.88
2023-04-18T08:56:42.415Z,100851.88
2023-04-18T08:59:13.042Z,100857.78
2023-04-18T09:01:51.716Z,100841.44
2023-04-18T09:04:50.359Z,100859.16
2023-04-18T09:07:20.174Z,100854.78
2023-04-18T09:09:51.020Z,100854.25
2023-04-18T09:12:23.019Z,100852.91
2023-04-18T09:14:54.524Z,100847.81
2023-04-18T09:17:33.220Z,100846.16
2023-04-18T09:20:06.857Z,100843.50
2023-04-18T09:22:48.313Z,100846.69
2023-04-18T09:25:29.380Z,100843.28
2023-04-18T09:28:01.415Z,100845.28
2023-04-18T09:30:38.215Z,100840.09
2023-04-18T09:33:07.983Z,100843.19
2023-04-18T09:35:39.120Z,100836.50
2023-04-18T09:38:08.322Z,100851.66
2023-04-18T09:40:38.948Z,100842.41
2023-04-18T09:43:21.237Z,100842.78
2023-04-18T09:45:50.001Z,100837.31
2023-04-18T09:48:18.640Z,100839.03
2023-04-18T09:50:50.828Z,100837.97
2023-04-18T09:53:21.136Z,100833.84
2023-04-18T09:55:51.490Z,100831.69
2023-04-18T09:58:23.095Z,100832.75
2023-04-18T10:00:51.647Z,100834.84
2023-04-18T10:03:21.356Z,100831.00
2023-04-18T10:05:52.637Z,100825.56
2023-04-18T10:08:22.225Z,100829.94
2023-04-18T10:10:51.359Z,100830.25
2023-04-18T10:13:20.832Z,100831.91
2023-04-18T10:15:50.968Z,100824.53
2023-04-18T10:18:23.576Z,100825.47
2023-04-18T10:21:02.550Z,100825.34
2023-04-18T10:24:00.689Z,100820.72
2023-04-18T10:26:47.465Z,100812.38
2023-04-18T10:29:15.838Z,100813.50
2023-04-18T10:31:48.125Z,100815.69
2023-04-18T10:34:19.910Z,100806.22
2023-04-18T10:37:11.582Z,100806.19
2023-04-18T10:39:50.376Z,100802.75
2023-04-18T10:42:19.084Z,100808.59
2023-04-18T10:45:05.584Z,100796.81
2023-04-18T10:47:34.564Z,100804.25
2023-04-18T10:50:06.826Z,100793.28
2023-04-18T10:52:38.437Z,100798.81
2023-04-18T10:55:12.251Z,100792.41
2023-04-18T10:57:42.289Z,100779.84
2023-04-18T11:00:13.706Z,100793.53
2023-04-18T11:02:42.985Z,100780.69
2023-04-18T11:05:12.163Z,100773.34
2023-04-18T11:07:45.186Z,100777.75
2023-04-18T11:10:14.495Z,100773.56
2023-04-18T11:12:46.253Z,100765.97
2023-04-18T11:15:17.815Z,100765.56
2023-04-18T11:17:47.431Z,100755.72
2023-04-18T11:20:16.389Z,100756.56
2023-04-18T11:22:51.959Z,100759.34
2023-04-18T11:25:22.465Z,100748.69
2023-04-18T11:27:55.917Z,100754.88
2023-04-18T11:30:24.604Z,100745.81
2023-04-18T11:32:54.425Z,100750.97
2023-04-18T11:35:22.883Z,100748.16
2023-04-18T11:37:52.534Z,100748.31
2023-04-18T11:40:20.961Z,100744.06
2023-04-18T11:42:50.950Z,100745.28
2023-04-18T11:45:19.170Z,100740.81
2023-04-18T11:47:47.890Z,100755.34
2023-04-18T11:50:16.416Z,100737.75
2023-04-18T11:52:44.897Z,100740.97
2023-04-18T11:55:17.964Z,100737.53
2023-04-18T11:58:07.575Z,100731.81
2023-04-18T12:00:37.367Z,100741.38
2023-04-18T12:03:13.389Z,100735.63
2023-04-18T12:05:43.070Z,100742.81
2023-04-18T12:08:13.369Z,100734.06
2023-04-18T12:10:48.665Z,100740.00
2023-04-18T12:13:17.320Z,100735.66
2023-04-18T12:15:47.309Z,100717.84
2023-04-18T12:18:16.839Z,100740.25
2023-04-18T12:20:50.523Z,100738.13
2023-04-18T12:23:36.456Z,100728.31
2023-04-18T12:26:07.560Z,100739.56
2023-04-18T12:28:37.064Z,100730.78
2023-04-18T12:31:07.946Z,100743.06
2023-04-18T12:33:37.231Z,100731.44
2023-04-18T12:36:09.541Z,100751.84
2023-04-18T12:38:38.204Z,100736.34
2023-04-18T12:41:08.449Z,100751.16
2023-04-18T12:43:37.016Z,100753.63
2023-04-18T12:46:05.073Z,100753.38
2023-04-18T12:48:33.496Z,100756.91
2023-04-18T12:51:02.293Z,100760.28
2023-04-18T12:53:30.927Z,100750.19
2023-04-18T12:56:01.550Z,100757.13
2023-04-18T12:58:31.206Z,100756.81
2023-04-18T13:00:59.946Z,100763.44
2023-04-18T13:03:28.791Z,100760.59
2023-04-18T13:05:57.789Z,100760.84
2023-04-18T13:08:27.058Z,100757.44
2023-04-18T13:10:56.385Z,100749.88
2023-04-18T13:13:24.574Z,100751.16
2023-04-18T13:15:54.451Z,100754.09
2023-04-18T13:18:26.520Z,100748.56
2023-04-18T13:20:55.045Z,100748.22
2023-04-18T13:23:24.274Z,100747.28
2023-04-18T13:25:56.411Z,100740.69
2023-04-18T13:31:11.313Z,100744.22
2023-04-18T13:33:41.293Z,100744.56
2023-04-18T13:36:10.030Z,100754.00
2023-04-18T13:38:41.719Z,100748.72
2023-04-18T13:41:13.390Z,100747.81
2023-04-18T13:43:42.341Z,100736.25
2023-04-18T13:46:14.400Z,100727.75
2023-04-18T13:48:58.259Z,100723.56
2023-04-18T13:51:27.018Z,100728.59
2023-04-18T13:53:56.310Z,100731.59
2023-04-18T13:56:25.154Z,100732.22
2023-04-18T13:58:56.140Z,100732.84
2023-04-18T14:01:26.913Z,100732.94
2023-04-18T14:04:10.097Z,100729.44
2023-04-18T14:06:39.001Z,100722.63
2023-04-18T14:09:11.498Z,100726.94
2023-04-18T14:11:40.825Z,100716.44
2023-04-18T14:14:23.210Z,100729.41
2023-04-18T14:16:55.188Z,100727.72
2023-04-18T14:19:28.126Z,100725.88
2023-04-18T14:21:56.422Z,100726.34
2023-04-18T14:24:31.985Z,100723.75
2023-04-18T14:27:02.106Z,100714.88
2023-04-18T14:29:31.411Z,100714.94
2023-04-18T14:32:08.150Z,100730.63
2023-04-18T14:34:38.208Z,100721.66
2023-04-18T14:37:08.136Z,100711.28
2023-04-18T14:39:38.688Z,100721.38
2023-04-18T14:42:07.670Z,100716.72
2023-04-18T14:44:37.212Z,100710.53
2023-04-18T14:47:07.276Z,100719.94
2023-04-18T14:49:36.345Z,100713.72
2023-04-18T14:52:05.126Z,100712.38
2023-04-18T14:54:34.402Z,100713.22
2023-04-18T14:57:03.214Z,100711.66
2023-04-18T14:59:32.285Z,100706.63
2023-04-18T15:02:00.712Z,100709.34
2023-04-18T15:04:34.231Z,100706.72
2023-04-18T15:07:03.337Z,100710.25
2023-04-18T15:09:31.606Z,100708.25
2023-04-18T15:12:00.481Z,100710.66
2023-04-18T15:14:28.365Z,100711.78
2023-04-18T15:17:02.025Z,100705.91
2023-04-18T15:19:39.179Z,100712.84
2023-04-18T15:22:09.892Z,100709.00
2023-04-18T15:24:38.210Z,100714.06
2023-04-18T15:27:11.927Z,100705.63
2023-04-18T15:29:40.271Z,100700.44
2023-04-18T15:32:10.115Z,100712.13
2023-04-18T15:34:40.095Z,100709.53
2023-04-18T15:37:08.798Z,100698.25
2023-04-18T15:39:37.573Z,100710.69
2023-04-18T15:42:06.127Z,100707.88
2023-04-18T15:44:36.904Z,100703.69
2023-04-18T15:47:06.312Z,100703.66
2023-04-18T15:49:34.181Z,100713.53
2023-04-18T15:54:53.335Z,100701.78
2023-04-18T15:57:25.328Z,100700.16
2023-04-18T15:59:56.934Z,100701.13
2023-04-18T16:02:48.594Z,100704.09
2023-04-18T16:05:17.666Z,100702.28
2023-04-18T16:07:50.302Z,100711.25
2023-04-18T16:10:48.451Z,100706.47
2023-04-18T16:13:21.312Z,100703.97
2023-04-18T16:15:54.680Z,100705.75
2023-04-18T16:18:28.568Z,100722.06
2023-04-18T16:20:59.459Z,100709.19
2023-04-18T16:23:32.862Z,100718.59
2023-04-18T16:28:51.649Z,100715.75
2023-04-18T16:31:21.103Z,100723.00
2023-04-18T16:33:52.740Z,100722.91
2023-04-18T16:36:23.606Z,100711.13
2023-04-18T16:39:03.134Z,100720.75
2023-04-18T16:44:20.740Z,100715.84
2023-04-18T16:46:58.988Z,100721.66
2023-04-18T16:49:28.028Z,100720.44
2023-04-18T16:52:09.863Z,100724.50
2023-04-18T16:54:42.164Z,100728.66
2023-04-18T17:02:47.517Z,100737.28
2023-04-18T17:05:20.737Z,100744.00
2023-04-18T17:07:55.525Z,100736.88
2023-04-18T17:10:28.139Z,100755.84
2023-04-18T17:12:57.425Z,100759.44
2023-04-18T17:15:28.395Z,100756.16
2023-04-18T17:18:00.400Z,100760.06
2023-04-18T17:20:28.914Z,100766.19
2023-04-18T17:22:57.785Z,100772.47
2023-04-18T17:25:34.130Z,100769.72
2023-04-18T17:28:06.750Z,100779.56
2023-04-18T17:30:35.236Z,100769.09
2023-04-18T17:33:06.733Z,100766.69
2023-04-18T17:35:37.447Z,100770.97
2023-04-18T17:38:06.955Z,100768.75
2023-04-18T17:40:37.203Z,100772.63
2023-04-18T17:43:07.502Z,100773.25
2023-04-18T17:45:38.965Z,100780.03
2023-04-18T17:48:24.303Z,100790.31
2023-04-18T17:50:56.094Z,100783.00
2023-04-18T17:53:25.570Z,100784.09
2023-04-18T17:56:04.305Z,100787.31
2023-04-18T17:58:35.544Z,100786.59
2023-04-18T18:01:06.340Z,100792.53
2023-04-18T18:03:35.487Z,100801.66
2023-04-18T18:06:05.760Z,100806.16
2023-04-18T18:08:36.459Z,100808.59
2023-04-18T18:11:08.939Z,100810.47
2023-04-18T18:13:50.266Z,100816.28
2023-04-18T18:16:21.396Z,100807.69
2023-04-18T18:18:51.127Z,100809.00
2023-04-18T18:21:19.890Z,100814.03
2023-04-18T18:23:50.302Z,100818.84
2023-04-18T18:26:26.790Z,100821.56
2023-04-18T18:28:56.175Z,100829.75
2023-04-18T18:31:26.016Z,100823.91
2023-04-18T18:33:58.982Z,100831.97
2023-04-18T18:36:28.781Z,100820.34
2023-04-18T18:38:57.470Z,100840.44
2023-04-18T18:41:34.330Z,100834.75
2023-04-18T18:44:04.814Z,100846.03
2023-04-18T18:46:38.909Z,100839.63
2023-04-18T18:49:09.710Z,100850.84
2023-04-18T18:54:45.589Z,100852.25
2023-04-18T18:57:16.383Z,100862.59
2023-04-18T18:59:44.806Z,100862.31
2023-04-18T19:02:21.792Z,100862.13
2023-04-18T19:04:58.088Z,100864.44
2023-04-18T19:07:30.117Z,100870.75
2023-04-18T19:10:01.205Z,100863.50
2023-04-18T19:12:52.243Z,100872.06
2023-04-18T19:18:11.325Z,100876.50
2023-04-18T19:20:44.117Z,100879.78
2023-04-18T19:23:17.392Z,100879.69
2023-04-18T19:25:48.049Z,100874.31
2023-04-18T19:28:18.986Z,100881.47
2023-04-18T19:30:50.546Z,100879.69
2023-04-18T19:33:24.913Z,100887.31
2023-04-18T19:35:56.658Z,100890.22
2023-04-18T19:41:43.477Z,100890.94
2023-04-18T19:50:39.806Z,100894.47
2023-04-18T19:53:09.187Z,100892.59
2023-04-18T19:55:52.306Z,100887.09
2023-04-18T19:58:45.339Z,100894.19
2023-04-18T20:01:19.553Z,100884.50
2023-04-18T20:07:38.770Z,100890.94
2023-04-18T20:13:15.807Z,100890.28
2023-04-18T20:15:46.936Z,100898.09
2023-04-18T20:18:37.976Z,100888.72
2023-04-18T20:21:12.712Z,100889.09
2023-04-18T20:23:48.644Z,100892.72
2023-04-18T20:29:21.795Z,100895.06
2023-04-18T20:31:56.563Z,100896.38
2023-04-18T20:34:40.887Z,100896.22
2023-04-18T20:37:11.918Z,100875.47
2023-04-18T20:39:59.160Z,100892.19
2023-04-18T20:42:41.814Z,100894.06
2023-04-18T20:45:22.398Z,100893.38
2023-04-18T20:47:57.695Z,100892.38
2023-04-18T20:50:31.954Z,100896.56
2023-04-18T20:53:02.756Z,100900.59
2023-04-18T20:55:36.565Z,100893.94
2023-04-18T20:58:07.370Z,100895.28
2023-04-18T21:00:36.873Z,100898.25
2023-04-18T21:03:10.590Z,100898.41
2023-04-18T21:08:39.530Z,100902.41
2023-04-18T21:11:09.005Z,100904.28
2023-04-18T21:13:38.647Z,100908.88
2023-04-18T21:16:10.285Z,100906.63
2023-04-18T21:18:38.646Z,100909.06
2023-04-18T21:21:07.461Z,100908.66
2023-04-18T21:23:41.833Z,100907.59
2023-04-18T21:26:13.065Z,100905.22
2023-04-18T21:28:54.624Z,100909.41
2023-04-18T21:31:23.084Z,100910.44
2023-04-18T21:33:52.870Z,100909.00
2023-04-18T21:36:21.128Z,100917.22
2023-04-18T21:38:49.464Z,100911.72
2023-04-18T21:41:18.933Z,100912.25
2023-04-18T21:43:47.218Z,100911.53
2023-04-18T21:46:16.104Z,100909.63
2023-04-18T21:48:45.089Z,100907.38
2023-04-18T21:51:15.284Z,100906.31
2023-04-18T21:53:43.698Z,100914.78
2023-04-18T21:56:11.886Z,100908.34
2023-04-18T21:58:42.521Z,100909.47
2023-04-18T22:01:10.574Z,100907.72
2023-04-18T22:03:38.690Z,100910.41
2023-04-18T22:06:06.741Z,100906.31
2023-04-18T22:08:34.795Z,100902.84
2023-04-18T22:11:02.916Z,100900.56
2023-04-18T22:13:33.089Z,100904.16
2023-04-18T22:16:03.686Z,100906.19
2023-04-18T22:18:33.666Z,100908.00
2023-04-18T22:21:03.639Z,100902.53
2023-04-18T22:23:32.200Z,100906.16
2023-04-18T22:26:00.147Z,100910.09
2023-04-18T22:28:29.165Z,100912.41
2023-04-18T22:30:57.912Z,100914.63
2023-04-18T22:33:27.739Z,100908.25
2023-04-18T22:35:56.016Z,100907.81
2023-04-18T22:38:24.476Z,100905.94
2023-04-18T22:40:52.608Z,100908.91
2023-04-18T22:43:23.797Z,100911.75
2023-04-18T22:45:52.461Z,100913.63
2023-04-18T22:48:20.628Z,100922.94
2023-04-18T22:50:51.035Z,100911.44
2023-04-18T22:53:19.083Z,100920.34
2023-04-18T22:55:47.481Z,100921.84
2023-04-18T22:58:16.109Z,100915.16
2023-04-18T23:00:44.147Z,100914.53
2023-04-18T23:03:12.486Z,100918.41
2023-04-18T23:05:41.567Z,100918.56
2023-04-18T23:08:12.432Z,100923.13
2023-04-18T23:10:41.016Z,100922.28
2023-04-18T23:13:08.790Z,100921.44
2023-04-18T23:15:37.405Z,100919.16
2023-04-18T23:18:05.951Z,100919.63
2023-04-18T23:20:34.474Z,100920.19
2023-04-18T23:23:02.790Z,100908.13
2023-04-18T23:25:35.009Z,100917.03
2023-04-18T23:28:03.547Z,100916.69
2023-04-18T23:30:32.019Z,100909.44
2023-04-18T23:33:00.371Z,100925.94
2023-04-18T23:35:28.593Z,100924.50
2023-04-18T23:37:57.330Z,100924.50
2023-04-18T23:40:25.924Z,100922.72
2023-04-18T23:42:55.870Z,100911.25
2023-04-18T23:45:25.765Z,100914.28
2023-04-18T23:47:54.272Z,100912.38
2023-04-18T23:50:22.411Z,100913.09
2023-04-18T23:52:51.065Z,100908.38
2023-04-18T23:55:19.673Z,100915.97
2023-04-18T23:57:48.184Z,100912.88
